createdAt,value
2022-10-21T00:02:26.374Z,98516.53
2022-10-21T00:04:53.149Z,98515.16
2022-10-21T00:07:19.884Z,98516.16
2022-10-21T00:09:46.621Z,98516.50
2022-10-21T00:12:13.287Z,98528.22
2022-10-21T00:14:39.916Z,98532.41
2022-10-21T00:17:06.602Z,98522.84
2022-10-21T00:19:33.695Z,98496.53
2022-10-21T00:22:00.397Z,98509.59
2022-10-21T00:24:27.180Z,98503.34
2022-10-21T00:26:56.124Z,98499.81
2022-10-21T00:29:22.948Z,98498.75
2022-10-21T00:31:54.249Z,98495.56
2022-10-21T00:34:21.776Z,98494.78
2022-10-21T00:36:48.579Z,98493.63
2022-10-21T00:39:15.392Z,98498.88
2022-10-21T00:41:42.168Z,98496.94
2022-10-21T00:44:13.479Z,98498.06
2022-10-21T00:46:45.370Z,98497.75
2022-10-21T00:49:24.241Z,98504.00
2022-10-21T00:51:56.122Z,98502.53
2022-10-21T00:54:25.268Z,98504.34
2022-10-21T00:56:54.843Z,98499.56
2022-10-21T00:59:23.825Z,98517.41
2022-10-21T01:01:51.386Z,98507.94
2022-10-21T01:04:18.133Z,98512.59
2022-10-21T01:06:47.030Z,98502.81
2022-10-21T01:09:14.769Z,98498.66
2022-10-21T01:11:44.567Z,98491.50
2022-10-21T01:14:39.319Z,98473.53
2022-10-21T01:17:43.763Z,98470.31
2022-10-21T01:20:20.043Z,98459.97
2022-10-21T01:23:06.885Z,98456.94
2022-10-21T01:25:52.288Z,98443.28
2022-10-21T01:28:40.565Z,98433.50
2022-10-21T01:31:22.280Z,98424.38
2022-10-21T01:34:00.408Z,98412.19
2022-10-21T01:36:36.201Z,98405.94
2022-10-21T01:39:15.054Z,98410.75
2022-10-21T01:44:44.750Z,98408.13
2022-10-21T01:47:25.817Z,98403.00
2022-10-21T01:49:57.801Z,98399.81
2022-10-21T01:52:24.643Z,98398.22
2022-10-21T01:54:57.048Z,98400.59
2022-10-21T01:57:28.262Z,98403.78
2022-10-21T02:00:00.407Z,98397.22
2022-10-21T02:02:31.169Z,98394.47
2022-10-21T02:05:01.925Z,98383.22
2022-10-21T02:07:28.905Z,98382.88
2022-10-21T02:09:55.999Z,98388.34
2022-10-21T02:12:25.917Z,98389.16
2022-10-21T02:14:54.506Z,98384.19
2022-10-21T02:17:22.879Z,98375.66
2022-10-21T02:19:49.601Z,98372.91
2022-10-21T02:22:21.840Z,98363.28
2022-10-21T02:24:55.675Z,98365.19
2022-10-21T02:27:23.224Z,98356.66
2022-10-21T02:29:54.226Z,98363.84
2022-10-21T02:32:33.410Z,98353.50
2022-10-21T02:35:08.683Z,98349.28
2022-10-21T02:38:24.792Z,98333.03
2022-10-21T02:40:55.678Z,98326.44
2022-10-21T02:43:28.018Z,98331.91
2022-10-21T02:46:00.342Z,98335.53
2022-10-21T02:48:27.198Z,98335.09
2022-10-21T02:50:56.254Z,98331.66
2022-10-21T02:53:22.976Z,98321.97
2022-10-21T02:55:49.702Z,98320.84
2022-10-21T02:58:16.412Z,98310.28
2022-10-21T03:00:43.137Z,98301.28
2022-10-21T03:03:09.856Z,98293.53
2022-10-21T03:05:36.548Z,98295.25
2022-10-21T03:08:03.406Z,98287.06
2022-10-21T03:10:30.234Z,98292.16
2022-10-21T03:12:57.017Z,98292.97
2022-10-21T03:15:23.704Z,98286.03
2022-10-21T03:17:50.371Z,98280.22
2022-10-21T03:20:17.241Z,98276.22
2022-10-21T03:22:44.162Z,98272.28
2022-10-21T03:25:11.819Z,98274.78
2022-10-21T03:27:38.780Z,98277.94
2022-10-21T03:30:07.066Z,98272.13
2022-10-21T03:32:34.529Z,98275.44
2022-10-21T03:35:01.242Z,98272.38
2022-10-21T03:37:27.950Z,98266.44
2022-10-21T03:39:54.638Z,98270.75
2022-10-21T03:42:21.328Z,98271.25
2022-10-21T03:44:48.006Z,98262.56
2022-10-21T03:47:14.730Z,98267.56
2022-10-21T03:49:41.411Z,98258.13
2022-10-21T03:52:08.205Z,98262.91
2022-10-21T03:54:34.934Z,98262.69
2022-10-21T03:57:01.688Z,98270.56
2022-10-21T03:59:28.528Z,98271.91
2022-10-21T04:01:55.320Z,98265.06
2022-10-21T04:04:22.043Z,98266.28
2022-10-21T04:06:48.806Z,98266.88
2022-10-21T04:09:15.829Z,98257.63
2022-10-21T04:11:42.566Z,98255.69
2022-10-21T04:14:12.933Z,98239.19
2022-10-21T04:16:42.146Z,98246.59
2022-10-21T04:19:14.370Z,98242.28
2022-10-21T04:21:41.041Z,98245.00
2022-10-21T04:24:07.752Z,98241.00
2022-10-21T04:26:34.448Z,98229.63
2022-10-21T04:29:01.194Z,98233.06
2022-10-21T04:31:31.322Z,98228.41
2022-10-21T04:33:59.171Z,98228.84
2022-10-21T04:36:25.858Z,98233.16
2022-10-21T04:38:52.678Z,98219.84
2022-10-21T04:41:19.642Z,98216.31
2022-10-21T04:43:46.353Z,98217.09
2022-10-21T04:46:15.382Z,98218.38
2022-10-21T04:48:42.817Z,98216.09
2022-10-21T04:51:09.642Z,98224.28
2022-10-21T04:53:36.372Z,98229.38
2022-10-21T04:56:03.932Z,98228.94
2022-10-21T04:58:31.030Z,98225.41
2022-10-21T05:00:58.183Z,98230.06
2022-10-21T05:03:27.411Z,98228.50
2022-10-21T05:05:54.147Z,98223.72
2022-10-21T05:08:23.743Z,98229.88
2022-10-21T05:10:57.247Z,98232.59
2022-10-21T05:13:24.041Z,98236.16
2022-10-21T05:15:50.727Z,98245.13
2022-10-21T05:18:17.416Z,98251.28
2022-10-21T05:20:50.103Z,98249.25
2022-10-21T05:23:16.847Z,98246.94
2022-10-21T05:25:47.656Z,98243.78
2022-10-21T05:28:14.826Z,98241.03
2022-10-21T05:33:08.555Z,98227.63
2022-10-21T05:35:35.330Z,98223.97
2022-10-21T05:38:02.309Z,98221.13
2022-10-21T05:40:29.042Z,98223.88
2022-10-21T05:42:55.748Z,98225.38
2022-10-21T05:45:22.811Z,98211.59
2022-10-21T05:47:49.506Z,98220.13
2022-10-21T05:50:16.514Z,98214.22
2022-10-21T05:52:43.229Z,98216.59
2022-10-21T05:55:10.495Z,98198.63
2022-10-21T05:57:38.638Z,98210.44
2022-10-21T06:00:06.465Z,98207.38
2022-10-21T06:02:33.887Z,98211.00
2022-10-21T06:05:00.643Z,98218.75
2022-10-21T06:07:27.470Z,98218.41
2022-10-21T06:09:54.978Z,98206.34
2022-10-21T06:12:22.164Z,98217.25
2022-10-21T06:14:48.848Z,98213.75
2022-10-21T06:17:15.726Z,98220.34
2022-10-21T06:19:44.932Z,98218.31
2022-10-21T06:22:14.759Z,98220.13
2022-10-21T06:24:41.448Z,98220.13
2022-10-21T06:27:08.551Z,98223.66
2022-10-21T06:29:35.227Z,98205.22
2022-10-21T06:32:02.033Z,98213.88
2022-10-21T06:34:28.904Z,98231.50
2022-10-21T06:36:55.606Z,98233.78
2022-10-21T06:39:22.377Z,98260.31
2022-10-21T06:41:49.054Z,98280.69
2022-10-21T06:44:15.762Z,98277.25
2022-10-21T06:46:42.472Z,98273.41
2022-10-21T06:49:09.323Z,98258.94
2022-10-21T06:51:36.047Z,98250.53
2022-10-21T06:54:02.699Z,98241.84
2022-10-21T06:56:29.768Z,98228.09
2022-10-21T06:58:58.029Z,98209.75
2022-10-21T07:01:34.249Z,98209.06
2022-10-21T07:04:09.271Z,98222.41
2022-10-21T07:06:36.731Z,98234.13
2022-10-21T07:09:04.722Z,98237.06
2022-10-21T07:11:31.849Z,98230.56
2022-10-21T07:14:00.880Z,98232.97
2022-10-21T07:16:30.613Z,98244.34
2022-10-21T07:18:58.016Z,98258.09
2022-10-21T07:21:27.207Z,98259.69
2022-10-21T07:23:57.856Z,98251.03
2022-10-21T07:26:29.121Z,98265.84
2022-10-21T07:28:58.438Z,98263.31
2022-10-21T07:31:26.078Z,98260.47
2022-10-21T07:33:53.104Z,98265.00
2022-10-21T07:36:25.503Z,98267.56
2022-10-21T07:38:54.491Z,98269.16
2022-10-21T07:41:26.304Z,98266.28
2022-10-21T07:43:53.686Z,98276.06
2022-10-21T07:46:21.521Z,98273.94
2022-10-21T07:48:48.451Z,98283.63
2022-10-21T07:51:18.204Z,98273.16
2022-10-21T07:53:45.873Z,98271.88
2022-10-21T07:56:15.436Z,98270.75
2022-10-21T07:58:43.341Z,98265.94
2022-10-21T08:01:11.057Z,98268.22
2022-10-21T08:03:37.944Z,98272.09
2022-10-21T08:06:09.377Z,98278.38
2022-10-21T08:08:37.553Z,98270.97
2022-10-21T08:11:05.159Z,98274.84
2022-10-21T08:13:32.096Z,98276.78
2022-10-21T08:15:59.162Z,98268.66
2022-10-21T08:18:27.064Z,98273.34
2022-10-21T08:20:54.887Z,98284.28
2022-10-21T08:23:23.318Z,98282.03
2022-10-21T08:25:54.703Z,98273.34
2022-10-21T08:28:24.531Z,98288.19
2022-10-21T08:30:51.835Z,98288.28
2022-10-21T08:33:19.182Z,98291.50
2022-10-21T08:35:45.884Z,98285.34
2022-10-21T08:38:12.739Z,98294.31
2022-10-21T08:40:51.131Z,98308.34
2022-10-21T08:43:26.651Z,98311.69
2022-10-21T08:45:58.160Z,98307.56
2022-10-21T08:48:31.526Z,98318.50
2022-10-21T08:50:58.681Z,98323.59
2022-10-21T08:53:44.768Z,98329.06
2022-10-21T08:56:19.754Z,98330.22
2022-10-21T08:58:51.143Z,98343.22
2022-10-21T09:01:38.047Z,98347.34
2022-10-21T09:04:10.249Z,98381.28
2022-10-21T09:06:57.703Z,98378.00
2022-10-21T09:09:52.351Z,98369.44
2022-10-21T09:12:35.961Z,98363.97
2022-10-21T09:15:24.372Z,98353.03
2022-10-21T09:18:03.377Z,98366.72
2022-10-21T09:20:56.126Z,98371.41
2022-10-21T09:23:45.262Z,98368.75
2022-10-21T09:26:30.534Z,98370.81
2022-10-21T09:28:58.587Z,98379.47
2022-10-21T09:31:25.525Z,98383.09
2022-10-21T09:33:58.004Z,98373.88
2022-10-21T09:36:31.149Z,98376.81
2022-10-21T09:39:06.811Z,98391.56
2022-10-21T09:41:41.476Z,98389.03
2022-10-21T09:44:16.842Z,98393.81
2022-10-21T09:46:52.112Z,98397.91
2022-10-21T09:50:06.412Z,98392.88
2022-10-21T09:52:21.976Z,98397.22
2022-10-21T09:54:49.088Z,98385.56
2022-10-21T09:57:26.378Z,98389.91
2022-10-21T09:59:59.790Z,98396.25
2022-10-21T10:02:35.381Z,98392.84
2022-10-21T10:05:05.333Z,98392.84
2022-10-21T10:07:35.300Z,98399.03
2022-10-21T10:10:04.294Z,98396.97
2022-10-21T10:12:31.057Z,98391.59
2022-10-21T10:15:31.484Z,98390.34
2022-10-21T10:17:58.386Z,98401.19
2022-10-21T10:20:25.234Z,98389.88
2022-10-21T10:23:01.056Z,98391.69
2022-10-21T10:25:32.762Z,98394.28
2022-10-21T10:28:04.133Z,98400.66
2022-10-21T10:30:43.238Z,98399.25
2022-10-21T10:33:12.996Z,98399.69
2022-10-21T10:35:47.596Z,98397.06
2022-10-21T10:38:40.012Z,98407.31
2022-10-21T10:41:11.272Z,98427.72
2022-10-21T10:43:46.973Z,98417.13
2022-10-21T10:46:34.209Z,98417.47
2022-10-21T10:49:13.096Z,98416.94
2022-10-21T10:51:42.368Z,98410.97
2022-10-21T10:54:18.399Z,98402.50
2022-10-21T10:56:50.175Z,98401.34
2022-10-21T10:59:25.082Z,98401.72
2022-10-21T11:02:10.332Z,98391.63
2022-10-21T11:04:46.321Z,98403.75
2022-10-21T11:07:21.548Z,98411.59
2022-10-21T11:09:52.688Z,98415.34
2022-10-21T11:12:26.439Z,98400.56
2022-10-21T11:14:58.455Z,98403.75
2022-10-21T11:17:37.621Z,98399.16
2022-10-21T11:20:22.430Z,98414.09
2022-10-21T11:23:07.965Z,98401.81
2022-10-21T11:25:44.982Z,98404.19
2022-10-21T11:28:44.318Z,98410.03
2022-10-21T11:31:37.332Z,98409.13
2022-10-21T11:34:23.316Z,98407.44
2022-10-21T11:37:05.024Z,98401.94
2022-10-21T11:39:44.269Z,98398.41
2022-10-21T11:42:20.077Z,98392.84
2022-10-21T11:45:12.444Z,98391.44
2022-10-21T11:47:47.243Z,98381.38
2022-10-21T11:50:30.601Z,98385.75
2022-10-21T11:53:17.499Z,98379.13
2022-10-21T11:55:57.939Z,98378.63
2022-10-21T11:58:38.212Z,98377.75
2022-10-21T12:01:23.874Z,98373.84
2022-10-21T12:04:05.612Z,98376.59
2022-10-21T12:06:38.568Z,98390.38
2022-10-21T12:09:19.298Z,98377.09
2022-10-21T12:12:11.376Z,98379.94
2022-10-21T12:14:52.634Z,98375.31
2022-10-21T12:17:21.667Z,98376.38
2022-10-21T12:20:00.449Z,98378.69
2022-10-21T12:22:30.725Z,98381.09
2022-10-21T12:25:28.697Z,98388.16
2022-10-21T12:28:06.749Z,98385.75
2022-10-21T12:31:12.649Z,98379.84
2022-10-21T12:33:45.146Z,98392.13
2022-10-21T12:36:20.346Z,98384.44
2022-10-21T12:38:55.354Z,98377.34
2022-10-21T12:41:24.932Z,98380.38
2022-10-21T12:44:00.692Z,98370.56
2022-10-21T12:46:40.334Z,98372.16
2022-10-21T12:49:10.277Z,98379.22
2022-10-21T12:51:37.121Z,98372.50
2022-10-21T12:54:03.826Z,98375.66
2022-10-21T12:56:35.442Z,98376.09
2022-10-21T12:59:06.977Z,98365.56
2022-10-21T13:01:45.106Z,98365.94
2022-10-21T13:04:33.620Z,98362.34
2022-10-21T13:07:04.089Z,98353.72
2022-10-21T13:09:38.190Z,98360.81
2022-10-21T13:12:07.918Z,98336.50
2022-10-21T13:14:42.663Z,98346.66
2022-10-21T13:17:29.123Z,98329.84
2022-10-21T13:20:04.984Z,98339.31
2022-10-21T13:22:41.877Z,98338.88
2022-10-21T13:25:25.921Z,98349.06
2022-10-21T13:28:17.936Z,98349.94
2022-10-21T13:30:47.605Z,98348.34
2022-10-21T13:33:18.271Z,98351.00
2022-10-21T13:35:54.211Z,98357.56
2022-10-21T13:38:34.523Z,98361.78
2022-10-21T13:41:27.879Z,98364.91
2022-10-21T13:43:57.696Z,98373.13
2022-10-21T13:46:32.546Z,98365.34
2022-10-21T13:49:00.635Z,98368.09
2022-10-21T13:51:41.297Z,98368.88
2022-10-21T13:54:16.025Z,98363.31
2022-10-21T13:56:43.426Z,98359.00
2022-10-21T13:59:29.684Z,98356.59
2022-10-21T14:01:57.720Z,98360.03
2022-10-21T14:04:30.842Z,98352.63
2022-10-21T14:07:01.217Z,98347.06
2022-10-21T14:09:33.128Z,98350.94
2022-10-21T14:12:07.444Z,98342.94
2022-10-21T14:14:38.914Z,98343.28
2022-10-21T14:17:08.699Z,98347.44
2022-10-21T14:19:38.542Z,98337.88
2022-10-21T14:24:44.062Z,98334.59
2022-10-21T14:27:18.369Z,98344.97
2022-10-21T14:29:45.630Z,98340.56
2022-10-21T14:32:29.390Z,98340.44
2022-10-21T14:35:11.617Z,98350.25
2022-10-21T14:37:54.648Z,98346.03
2022-10-21T14:40:33.131Z,98343.28
2022-10-21T14:43:02.912Z,98337.44
2022-10-21T14:45:36.038Z,98342.16
2022-10-21T14:48:16.177Z,98342.16
2022-10-21T14:50:43.725Z,98352.72
2022-10-21T14:53:22.806Z,98342.59
2022-10-21T14:55:56.345Z,98349.22
2022-10-21T14:58:28.580Z,98364.41
2022-10-21T15:01:01.421Z,98354.50
2022-10-21T15:03:52.703Z,98353.59
2022-10-21T15:06:28.789Z,98353.50
2022-10-21T15:09:00.092Z,98344.84
2022-10-21T15:11:29.912Z,98344.50
2022-10-21T15:14:13.030Z,98344.84
2022-10-21T15:16:54.374Z,98344.84
2022-10-21T15:19:28.427Z,98339.28
2022-10-21T15:22:01.584Z,98341.56
2022-10-21T15:24:41.833Z,98346.69
2022-10-21T15:27:24.213Z,98337.69
2022-10-21T15:29:51.474Z,98345.47
2022-10-21T15:32:21.253Z,98351.28
2022-10-21T15:34:52.441Z,98355.16
2022-10-21T15:37:19.953Z,98355.53
2022-10-21T15:39:48.537Z,98359.50
2022-10-21T15:42:18.256Z,98351.66
2022-10-21T15:44:50.082Z,98338.91
2022-10-21T15:47:17.332Z,98341.81
2022-10-21T15:49:46.422Z,98333.75
2022-10-21T15:52:13.918Z,98329.59
2022-10-21T15:54:41.213Z,98331.78
2022-10-21T15:57:15.406Z,98337.94
2022-10-21T15:59:42.475Z,98341.81
2022-10-21T16:02:15.467Z,98326.91
2022-10-21T16:04:43.845Z,98330.09
2022-10-21T16:07:43.247Z,98335.13
2022-10-21T16:10:21.044Z,98332.28
2022-10-21T16:12:48.661Z,98343.13
2022-10-21T16:15:16.565Z,98335.97
2022-10-21T16:17:45.630Z,98345.66
2022-10-21T16:20:19.802Z,98349.00
2022-10-21T16:22:46.593Z,98340.50
2022-10-21T16:25:14.900Z,98350.88
2022-10-21T16:27:55.211Z,98335.00
2022-10-21T16:30:29.336Z,98340.72
2022-10-21T16:32:57.169Z,98340.47
2022-10-21T16:35:24.594Z,98344.47
2022-10-21T16:37:51.340Z,98346.63
2022-10-21T16:40:22.588Z,98347.34
2022-10-21T16:42:50.255Z,98347.13
2022-10-21T16:45:18.299Z,98348.19
2022-10-21T16:47:51.154Z,98352.13
2022-10-21T16:50:24.643Z,98348.72
2022-10-21T16:52:51.858Z,98358.50
2022-10-21T16:55:18.628Z,98358.63
2022-10-21T16:57:45.405Z,98358.06
2022-10-21T17:00:13.134Z,98362.06
2022-10-21T17:02:42.098Z,98356.03
2022-10-21T17:05:11.510Z,98352.38
2022-10-21T17:07:38.554Z,98349.88
2022-10-21T17:10:06.029Z,98347.97
2022-10-21T17:12:33.975Z,98347.84
2022-10-21T17:15:01.149Z,98347.75
2022-10-21T17:17:27.904Z,98337.00
2022-10-21T17:19:54.812Z,98335.78
2022-10-21T17:22:21.687Z,98340.78
2022-10-21T17:24:48.602Z,98346.94
2022-10-21T17:27:19.599Z,98353.16
2022-10-21T17:29:46.993Z,98355.56
2022-10-21T17:32:14.023Z,98356.72
2022-10-21T17:34:41.364Z,98352.63
2022-10-21T17:37:10.109Z,98347.25
2022-10-21T17:39:37.193Z,98343.50
2022-10-21T17:42:04.459Z,98351.84
2022-10-21T17:44:31.180Z,98355.94
2022-10-21T17:46:58.934Z,98336.91
2022-10-21T17:49:26.349Z,98342.81
2022-10-21T17:51:53.202Z,98339.75
2022-10-21T17:54:24.640Z,98341.81
2022-10-21T17:56:56.621Z,98338.25
2022-10-21T17:59:23.618Z,98331.19
2022-10-21T18:01:50.545Z,98332.69
2022-10-21T18:04:17.308Z,98328.00
2022-10-21T18:06:44.192Z,98328.81
2022-10-21T18:09:11.381Z,98322.22
2022-10-21T18:11:38.187Z,98319.81
2022-10-21T18:14:05.261Z,98320.94
2022-10-21T18:16:32.563Z,98321.63
2022-10-21T18:19:02.021Z,98323.91
2022-10-21T18:21:30.642Z,98321.88
2022-10-21T18:23:59.675Z,98321.88
2022-10-21T18:26:29.358Z,98327.78
2022-10-21T18:28:59.109Z,98315.94
2022-10-21T18:31:31.119Z,98314.72
2022-10-21T18:33:59.362Z,98322.56
2022-10-21T18:36:26.549Z,98321.09
2022-10-21T18:38:53.871Z,98316.41
2022-10-21T18:41:21.589Z,98319.59
2022-10-21T18:43:51.195Z,98315.28
2022-10-21T18:46:19.123Z,98319.59
2022-10-21T18:48:46.072Z,98316.53
2022-10-21T18:51:15.593Z,98324.72
2022-10-21T18:53:42.927Z,98330.66
2022-10-21T18:56:15.402Z,98335.66
2022-10-21T18:58:42.882Z,98332.94
2022-10-21T19:01:11.306Z,98326.09
2022-10-21T19:03:38.450Z,98331.44
2022-10-21T19:06:28.547Z,98333.25
2022-10-21T19:08:55.566Z,98332.22
2022-10-21T19:11:22.595Z,98334.50
2022-10-21T19:13:49.956Z,98328.94
2022-10-21T19:16:16.753Z,98335.19
2022-10-21T19:18:43.666Z,98328.94
2022-10-21T19:21:12.891Z,98326.31
2022-10-21T19:23:39.927Z,98325.97
2022-10-21T19:26:10.749Z,98332.22
2022-10-21T19:28:38.936Z,98332.22
2022-10-21T19:31:07.663Z,98322.78
2022-10-21T19:33:34.599Z,98322.44
2022-10-21T19:36:04.976Z,98328.25
2022-10-21T19:38:50.811Z,98324.16
2022-10-21T19:41:20.679Z,98321.97
2022-10-21T19:43:59.341Z,98325.97
2022-10-21T19:46:29.763Z,98318.31
2022-10-21T19:48:57.073Z,98323.31
2022-10-21T19:51:26.303Z,98329.59
2022-10-21T19:53:55.910Z,98339.69
2022-10-21T19:56:27.720Z,98336.47
2022-10-21T19:58:56.770Z,98335.38
2022-10-21T20:01:26.033Z,98343.69
2022-10-21T20:03:54.241Z,98341.66
2022-10-21T20:06:30.091Z,98346.94
2022-10-21T20:09:04.112Z,98354.34
2022-10-21T20:11:32.307Z,98355.47
2022-10-21T20:13:59.592Z,98361.25
2022-10-21T20:16:29.210Z,98359.34
2022-10-21T20:18:58.406Z,98369.91
2022-10-21T20:21:27.860Z,98368.00
2022-10-21T20:23:57.046Z,98371.84
2022-10-21T20:26:24.208Z,98371.19
2022-10-21T20:28:51.827Z,98378.25
2022-10-21T20:31:19.194Z,98381.47
2022-10-21T20:33:50.232Z,98382.59
2022-10-21T20:36:19.840Z,98383.06
2022-10-21T20:38:47.607Z,98384.19
2022-10-21T20:41:18.365Z,98380.16
2022-10-21T20:43:45.222Z,98367.84
2022-10-21T20:46:13.318Z,98369.44
2022-10-21T20:48:46.230Z,98381.63
2022-10-21T20:51:19.044Z,98378.91
2022-10-21T20:53:56.810Z,98384.03
2022-10-21T20:56:27.965Z,98380.97
2022-10-21T20:58:55.265Z,98389.16
2022-10-21T21:01:28.671Z,98392.56
2022-10-21T21:03:58.158Z,98394.81
2022-10-21T21:06:27.932Z,98399.00
2022-10-21T21:09:29.050Z,98401.41
2022-10-21T21:11:45.848Z,98413.66
2022-10-21T21:14:18.620Z,98421.38
2022-10-21T21:16:45.572Z,98422.19
2022-10-21T21:19:25.671Z,98426.38
2022-10-21T21:21:54.714Z,98424.53
2022-10-21T21:24:22.599Z,98430.31
2022-10-21T21:26:49.466Z,98433.38
2022-10-21T21:29:16.227Z,98422.47
2022-10-21T21:31:43.478Z,98422.00
2022-10-21T21:34:12.279Z,98420.19
2022-10-21T21:36:40.724Z,98413.41
2022-10-21T21:39:08.445Z,98417.06
2022-10-21T21:41:35.953Z,98408.09
2022-10-21T21:44:05.106Z,98417.41
2022-10-21T21:46:31.954Z,98405.81
2022-10-21T21:49:05.558Z,98414.78
2022-10-21T21:51:35.233Z,98412.06
2022-10-21T21:54:04.222Z,98421.38
2022-10-21T21:56:31.106Z,98413.13
2022-10-21T21:58:58.501Z,98408.72
2022-10-21T22:01:27.501Z,98409.22
2022-10-21T22:03:54.975Z,98417.88
2022-10-21T22:06:24.129Z,98419.09
2022-10-21T22:08:51.544Z,98413.19
2022-10-21T22:11:21.630Z,98417.41
2022-10-21T22:13:48.505Z,98416.38
2022-10-21T22:16:19.936Z,98406.81
2022-10-21T22:18:46.876Z,98392.09
2022-10-21T22:21:16.750Z,98375.84
2022-10-21T22:23:44.624Z,98361.59
2022-10-21T22:26:12.982Z,98337.59
2022-10-21T22:28:40.318Z,98349.75
2022-10-21T22:31:09.614Z,98373.63
2022-10-21T22:33:37.314Z,98387.25
2022-10-21T22:36:05.713Z,98388.34
2022-10-21T22:38:32.999Z,98396.25
2022-10-21T22:41:02.244Z,98401.22
2022-10-21T22:43:29.565Z,98416.78
2022-10-21T22:46:05.242Z,98418.06
2022-10-21T22:48:42.372Z,98407.94
2022-10-21T22:51:09.090Z,98415.34
2022-10-21T22:53:36.700Z,98414.84
2022-10-21T22:56:03.989Z,98420.53
2022-10-21T22:58:30.890Z,98424.44
2022-10-21T23:00:58.267Z,98435.47
2022-10-21T23:03:25.164Z,98420.75
2022-10-21T23:05:51.873Z,98428.44
2022-10-21T23:08:18.946Z,98447.06
2022-10-21T23:10:48.989Z,98480.94
2022-10-21T23:13:16.015Z,98484.97
2022-10-21T23:15:43.244Z,98471.25
2022-10-21T23:18:10.253Z,98474.75
2022-10-21T23:20:37.008Z,98468.84
2022-10-21T23:23:04.325Z,98461.31
2022-10-21T23:25:31.134Z,98446.16
2022-10-21T23:27:58.170Z,98446.34
2022-10-21T23:30:24.928Z,98466.78
2022-10-21T23:32:51.764Z,98467.72
2022-10-21T23:35:19.579Z,98468.84
2022-10-21T23:37:46.575Z,98467.84
2022-10-21T23:40:13.587Z,98480.16
2022-10-21T23:42:42.829Z,98473.72
2022-10-21T23:45:11.285Z,98483.81
2022-10-21T23:47:39.877Z,98494.53
2022-10-21T23:50:08.271Z,98495.00
2022-10-21T23:52:35.541Z,98494.34
2022-10-21T23:55:02.252Z,98497.41
2022-10-21T23:57:28.996Z,98491.59
2022-10-21T23:59:55.720Z,98487.94
